Flight Track Log - Related Links

Times and Time Zones

All times are in EDT time to prevent confusion due to time zone crossing. See the N516QS flight status page for this flight to view local times or setup timezone preferences in your user account.

Time Position Orientation Groundspeed Altitude Reporting Facility
EDT Latitude Longitude Course Direction KTS MPH feet Rate Location/Type
Wed 04:02:56 PM 28.5500 -81.3167 69° East 153 176 1,200  Level Orlando TRACON
Wed 04:03:44 PM 28.5667 -81.2667 69° East 196 226 1,700 936 Climbing Orlando TRACON
Wed 04:04:45 PM 28.5500 -81.2167 111° Southeast 204 235 2,900 1,289 Climbing Orlando TRACON
Wed 04:05:45 PM 28.5333 -81.1500 106° East 202 232 4,300 1,900 Climbing Orlando TRACON
Wed 04:06:45 PM 28.4833 -81.1000 139° Southeast 256 295 6,700 2,607 Climbing Orlando TRACON
Wed 04:08:56 PM 28.3433 -80.9939 146° Southeast 294 338 12,600 2,482 Climbing Miami Center
Wed 04:09:56 PM 28.2719 -80.9347 144° Southeast 330 380 14,600 1,950 Climbing Miami Center
Wed 04:10:56 PM 28.2036 -80.8406 129° Southeast 373 429 16,500 1,900 Climbing Miami Center
Wed 04:11:56 PM 28.1314 -80.7367 128° Southeast 403 464 18,400 2,100 Climbing Miami Center
Wed 04:12:56 PM 28.0589 -80.6378 130° Southeast 413 475 20,700 2,400 Climbing Miami Center
Wed 04:13:56 PM 27.9803 -80.5292 129° Southeast 429 494 23,200 2,650 Climbing Miami Center
Wed 04:14:56 PM 27.8936 -80.4067 129° Southeast 445 512 26,000 2,300 Climbing Miami Center
Wed 04:15:56 PM 27.8147 -80.3033 131° Southeast 459 528 27,800 1,000 Climbing Miami Center
Wed 04:16:56 PM 27.7278 -80.1858 130° Southeast 477 549 28,000 100 Climbing Miami Center
Wed 04:17:56 PM 27.6428 -80.0683 129° Southeast 482 555 28,000  Level Miami Center
Wed 04:18:56 PM 27.5556 -79.9511 130° Southeast 487 560 28,000  Level Miami Center
Wed 04:19:56 PM 27.4642 -79.8222 129° Southeast 487 560 28,000  Level Miami Center
Wed 04:20:56 PM 27.3769 -79.7056 130° Southeast 482 555 28,000  Level Miami Center
Wed 04:21:56 PM 27.2994 -79.6008 130° Southeast 482 555 28,000  Level Miami Center
Wed 04:22:56 PM 27.2139 -79.4867 130° Southeast 482 555 28,000  Level Miami Center
Wed 04:23:56 PM 27.1181 -79.3583 130° Southeast 487 560 28,000  Level Miami Center
Wed 04:24:56 PM 27.0322 -79.2447 130° Southeast 487 560 28,000  Level Miami Center
Wed 04:25:56 PM 26.9483 -79.1333 130° Southeast 480 552 28,000 -150 Level Miami Center
Wed 04:26:56 PM 26.8644 -79.0200 130° Southeast 475 547 27,700 -900 Descending Miami Center
Wed 04:27:56 PM 26.7806 -78.9067 130° Southeast 469 540 26,200 -1,450 Descending Miami Center
Wed 04:28:56 PM 26.6983 -78.8031 132° Southeast 464 534 24,800 -1,100 Descending Miami Center
Wed 04:29:56 PM 26.6142 -78.6900 130° Southeast 464 534 24,000 -400 Descending Miami Center
Wed 04:30:56 PM 26.5253 -78.5981 137° Southeast 457 526 24,000  Level Miami Center
Wed 04:31:56 PM 26.4514 -78.4808 125° Southeast 447 514 24,000 -650 Level Miami Center
Wed 04:32:56 PM 26.3669 -78.3756 132° Southeast 453 521 22,700 -1,700 Descending Miami Center
Wed 04:33:56 PM 26.2908 -78.2747 130° Southeast 447 514 20,600 -2,050 Descending Miami Center
Wed 04:34:56 PM 26.2183 -78.1789 130° Southeast 422 486 18,600 -1,950 Descending Miami Center
Wed 04:35:56 PM 26.1483 -78.0881 131° Southeast 401 461 16,700 -1,950 Descending Miami Center
Wed 04:36:56 PM 26.0842 -77.9969 128° Southeast 381 438 14,700 -1,650 Descending Miami Center
Wed 04:37:56 PM 26.0178 -77.9225 135° Southeast 364 419 13,400 -850 Descending Miami Center
Wed 04:38:56 PM 25.9578 -77.8364 128° Southeast 352 405 13,000 -200 Descending Miami Center
Wed 04:39:56 PM 25.8958 -77.7550 130° Southeast 352 405 13,000  Level Miami Center
Wed 04:40:56 PM 25.8356 -77.6875 135° Southeast 330 380 13,000  Level Miami Center
Wed 04:41:56 PM 25.7817 -77.6111 128° Southeast 317 365 13,000 -550 Level Miami Center
Wed 04:42:56 PM 25.7233 -77.5417 133° Southeast 312 359 11,900 -1,700 Descending Miami Center
Wed 04:43:56 PM 25.6525 -77.4950 149° Southeast 306 352 9,600 -2,300 Descending Miami Center
Wed 04:45:00 PM 25.5475 -77.4803 173° South  Level FlightAware Approximate
Wed 04:52:00 PM 25.0333 -77.4500 170° South  Level FlightAware Approximate
Wed 04:53:00 PM 25.0390 -77.4662 170° South  Level Estimated
Wed 04:54:00 PM 25.0390 -77.4662 170° South  Level Estimated
Wed 04:55:00 PM 25.0390 -77.4662 170° South  Level Estimated
Wed 04:56:00 PM 25.0390 -77.4662 170° South  Level Estimated
Wed 04:57:00 PM 25.0390 -77.4662 170° South  Level Estimated
Wed 04:58:00 PM 25.0390 -77.4662 170° South  Level Estimated
Wed 04:59:00 PM 25.0390 -77.4662 170° South  Level Estimated
Wed 05:00:00 PM 25.0390 -77.4662 170° South  Level Estimated
Wed 05:01:00 PM 25.0390 -77.4662 170° South  Level Estimated
Wed 05:02:00 PM 25.0390 -77.4662 170° South  Level Estimated
Wed 05:03:00 PM 25.0390 -77.4662 170° South  Level Estimated
Wed 05:04:00 PM 25.0390 -77.4662 170° South  Level Estimated

Login

Don't have an account? Register now (free) for customized features, flight alerts, and more!